Time;durP1;ratioP1;P1;durP2;ratioP2;P2;SDS_P1;SDS_P2;PMS_P1;PMS_P2;Temp;Humidity;BMP_temperature;BMP_pressure;BME280_temperature;BME280_humidity;BME280_pressure;Samples;Min_cycle;Max_cycle;Signal;HPM_P1;HPM_P2
2021/12/07 00:00:31;;;;;;;76.00;41.63;;;;;;;-0.62;100.00;99386.06;5031809;28;20030;-84
2021/12/07 00:02:56;;;;;;;76.32;42.15;;;;;;;-0.65;100.00;99382.69;5030717;28;20031;-84
2021/12/07 00:05:22;;;;;;;96.53;49.85;;;;;;;-0.69;100.00;99373.31;5032264;28;20034;-84
2021/12/07 00:07:48;;;;;;;107.43;51.42;;;;;;;-0.61;100.00;99381.81;5032038;28;20025;-84
2021/12/07 00:10:15;;;;;;;65.15;37.28;;;;;;;-0.65;100.00;99367.31;5030809;28;20172;-84
2021/12/07 00:12:43;;;;;;;68.35;38.70;;;;;;;-0.69;100.00;99355.41;5030491;28;20044;-84
2021/12/07 00:15:13;;;;;;;69.13;38.60;;;;;;;-0.81;100.00;99339.28;5030309;28;20450;-84
2021/12/07 00:17:39;;;;;;;61.28;36.97;;;;;;;-0.66;100.00;99365.63;5030507;28;20028;-84
2021/12/07 00:20:08;;;;;;;68.70;38.65;;;;;;;-0.73;100.00;99352.03;5009498;28;20046;-84
2021/12/07 00:22:34;;;;;;;71.07;38.58;;;;;;;-0.67;100.00;99361.38;5009282;28;20066;-84
2021/12/07 00:24:59;;;;;;;114.60;51.00;;;;;;;-0.63;100.00;99369.03;4993178;28;20176;-84
2021/12/07 00:27:25;;;;;;;90.68;44.08;;;;;;;-0.66;100.00;99357.97;4993209;28;20030;-84
2021/12/07 00:29:50;;;;;;;67.10;38.50;;;;;;;-0.75;100.00;99351.19;5009346;28;20410;-84
2021/12/07 00:32:31;;;;;;;70.30;39.60;;;;;;;-0.66;100.00;99363.91;4993219;28;20022;-84
2021/12/07 00:37:26;;;;;;;80.85;42.75;;;;;;;-0.69;100.00;99358.81;5009540;28;20034;-84
2021/12/07 00:39:56;;;;;;;78.78;44.55;;;;;;;-0.76;100.00;99369.94;4992860;28;20052;-84
2021/12/07 00:42:22;;;;;;;59.67;35.27;;;;;;;-0.69;100.00;99374.16;4992991;28;20061;-84
2021/12/07 00:44:48;;;;;;;66.07;37.50;;;;;;;-0.74;100.00;99370.78;4992825;28;20108;-84
2021/12/07 00:47:14;;;;;;;66.10;37.00;;;;;;;-0.72;100.00;99374.16;4993007;28;20501;-84
2021/12/07 00:49:40;;;;;;;62.83;36.88;;;;;;;-0.66;100.00;99379.28;5009453;28;20037;-84
2021/12/07 00:52:06;;;;;;;59.42;35.08;;;;;;;-0.71;100.00;99367.38;5033200;28;20511;-84
2021/12/07 00:54:32;;;;;;;61.53;35.95;;;;;;;-0.69;100.00;99370.75;5035399;28;20025;-84
2021/12/07 00:56:57;;;;;;;57.40;35.15;;;;;;;-0.81;100.00;99364.84;5035357;28;20034;-84
2021/12/07 00:59:23;;;;;;;63.63;37.97;;;;;;;-0.71;100.00;99381.00;5035546;28;20507;-84
2021/12/07 01:01:48;;;;;;;60.30;35.03;;;;;;;-0.70;100.00;99366.50;5033937;28;20022;-84
2021/12/07 01:04:14;;;;;;;58.63;34.55;;;;;;;-0.65;100.00;99373.28;5035355;28;20036;-84
2021/12/07 01:07:02;;;;;;;52.55;33.05;;;;;;;-0.67;100.00;99366.50;5033742;28;20033;-84
2021/12/07 01:09:40;;;;;;;52.20;31.75;;;;;;;-0.60;100.00;99375.81;5033898;28;20030;-84
2021/12/07 01:25:54;;;;;;;58.80;32.83;;;;;;;-0.76;100.00;99362.25;5054891;28;20044;-84
2021/12/07 01:36:22;;;;;;;55.65;33.33;;;;;;;-0.84;100.00;99366.59;5054469;28;20041;-84
2021/12/07 01:52:24;;;;;;;68.75;37.58;;;;;;;-0.73;100.00;99379.31;5012505;28;20123;-84
2021/12/07 02:00:05;;;;;;;125.32;54.90;;;;;;;-0.80;100.00;99364.00;5012465;28;20083;-84
2021/12/07 02:02:31;;;;;;;71.97;37.03;;;;;;;-0.80;100.00;99361.44;5011583;28;20034;-84
2021/12/07 02:04:56;;;;;;;59.22;34.05;;;;;;;-0.77;100.00;99365.69;4995279;28;20456;-84
2021/12/07 02:07:23;;;;;;;55.83;32.92;;;;;;;-0.86;100.00;99348.69;4995481;28;20040;-84
2021/12/07 02:09:53;;;;;;;54.28;31.02;;;;;;;-0.87;100.00;99347.00;5011598;28;20161;-84
2021/12/07 02:12:19;;;;;;;52.57;31.03;;;;;;;-0.89;100.00;99352.97;4995296;28;20473;-84
2021/12/07 02:14:44;;;;;;;58.00;34.17;;;;;;;-0.91;100.00;99355.53;4994814;28;20108;-84
2021/12/07 02:17:14;;;;;;;51.65;32.60;;;;;;;-1.12;100.00;99318.16;5011804;28;20466;-84
2021/12/07 02:19:40;;;;;;;57.22;35.10;;;;;;;-0.90;100.00;99335.94;5011504;28;20048;-84
2021/12/07 02:22:07;;;;;;;57.35;34.25;;;;;;;-0.91;100.00;99329.13;5012008;28;20042;-84
2021/12/07 02:24:33;;;;;;;56.88;34.65;;;;;;;-0.82;100.00;99339.28;5032741;28;20034;-84
2021/12/07 02:27:00;;;;;;;49.38;30.58;;;;;;;-0.87;100.00;99335.91;5032357;28;20037;-84
2021/12/07 02:29:26;;;;;;;57.47;34.22;;;;;;;-0.87;100.00;99333.38;5032648;28;20025;-84
2021/12/07 02:31:53;;;;;;;53.65;31.65;;;;;;;-0.86;100.00;99337.63;5032365;28;20051;-85
2021/12/07 02:34:20;;;;;;;55.63;34.08;;;;;;;-0.90;100.00;99336.78;5032663;28;20021;-84
2021/12/07 02:36:46;;;;;;;63.08;36.00;;;;;;;-0.83;100.00;99345.28;5033523;28;20033;-84
2021/12/07 02:39:12;;;;;;;67.38;38.85;;;;;;;-0.91;100.00;99329.97;5033729;28;20480;-84
2021/12/07 02:41:39;;;;;;;71.00;39.13;;;;;;;-0.92;100.00;99323.16;5032433;28;20476;-84
2021/12/07 02:44:06;;;;;;;65.38;35.28;;;;;;;-0.81;100.00;99354.63;5032236;28;20072;-84
2021/12/07 02:46:34;;;;;;;54.03;32.88;;;;;;;-0.85;100.00;99346.97;5032246;28;20078;-85
2021/12/07 02:49:00;;;;;;;65.05;34.13;;;;;;;-0.85;100.00;99357.19;5031866;28;20543;-84
2021/12/07 02:51:25;;;;;;;76.35;39.78;;;;;;;-0.92;100.00;99340.22;5032014;28;20116;-84
2021/12/07 02:53:51;;;;;;;70.13;38.35;;;;;;;-0.88;100.00;99345.31;5031899;28;20029;-84
2021/12/07 02:56:17;;;;;;;62.53;34.47;;;;;;;-0.96;100.00;99324.03;5033349;28;20021;-84
2021/12/07 02:58:44;;;;;;;64.13;36.78;;;;;;;-0.91;100.00;99329.97;5031776;28;20038;-84
2021/12/07 03:01:18;;;;;;;61.75;36.58;;;;;;;-0.89;100.00;99333.34;5031882;28;20027;-84
2021/12/07 03:06:40;;;;;;;58.78;35.20;;;;;;;-0.91;100.00;99326.56;5033236;28;20167;-84
2021/12/07 03:28:23;;;;;;;66.70;36.65;;;;;;;-0.74;100.00;99335.00;5010521;28;20508;-84
2021/12/07 03:30:48;;;;;;;59.60;36.15;;;;;;;-0.72;100.00;99329.84;4993759;28;20038;-85
2021/12/07 03:33:14;;;;;;;58.20;34.10;;;;;;;-0.74;100.00;99324.75;5010288;28;20120;-84
2021/12/07 03:35:39;;;;;;;59.15;33.28;;;;;;;-0.82;100.00;99301.78;4993786;28;20041;-84
2021/12/07 03:38:07;;;;;;;58.13;33.97;;;;;;;-0.81;100.00;99306.03;4993594;28;20093;-84
2021/12/07 03:40:32;;;;;;;54.85;32.85;;;;;;;-0.72;100.00;99323.03;4993774;28;20105;-84
2021/12/07 03:42:59;;;;;;;53.28;32.80;;;;;;;-0.75;100.00;99307.72;4993505;28;20505;-85
2021/12/07 03:45:25;;;;;;;61.75;35.03;;;;;;;-0.91;100.00;99290.78;5010059;28;20489;-84
2021/12/07 03:47:52;;;;;;;62.58;34.95;;;;;;;-0.70;100.00;99317.91;4993457;28;20112;-84
2021/12/07 03:50:21;;;;;;;70.57;39.38;;;;;;;-0.70;100.00;99323.03;4993803;28;20060;-84
2021/12/07 03:52:47;;;;;;;57.83;34.78;;;;;;;-0.79;100.00;99309.44;5052113;28;20111;-84
2021/12/07 03:55:13;;;;;;;63.15;34.38;;;;;;;-0.78;100.00;99307.72;5034168;28;20536;-84
2021/12/07 03:57:38;;;;;;;65.93;36.25;;;;;;;-0.80;100.00;99297.53;5034213;28;20156;-84
2021/12/07 04:00:07;;;;;;;62.13;36.63;;;;;;;-0.65;100.00;99324.69;5033809;28;20145;-84
2021/12/07 04:02:39;;;;;;;98.63;48.45;;;;;;;-0.79;100.00;99308.59;5052563;28;20029;-84
2021/12/07 04:05:10;;;;;;;78.60;39.13;;;;;;;-0.76;100.00;99309.44;5033917;28;20037;-84
2021/12/07 04:07:35;;;;;;;66.55;38.80;;;;;;;-0.70;100.00;99325.59;5034099;28;20036;-84
2021/12/07 04:10:01;;;;;;;113.93;52.65;;;;;;;-0.86;100.00;99312.03;5033760;28;20021;-84
2021/12/07 04:12:26;;;;;;;91.60;45.65;;;;;;;-0.83;100.00;99317.16;5033950;28;20024;-84
2021/12/07 04:14:51;;;;;;;63.75;36.08;;;;;;;-0.77;100.00;99333.28;5051043;28;20469;-84
2021/12/07 04:17:18;;;;;;;65.20;38.03;;;;;;;-0.82;100.00;99324.81;5034097;28;20126;-85
2021/12/07 04:19:44;;;;;;;66.78;37.90;;;;;;;-0.79;100.00;99331.63;5034097;28;20028;-84
2021/12/07 04:22:09;;;;;;;74.07;40.63;;;;;;;-0.86;100.00;99317.16;5033705;28;20029;-85
2021/12/07 04:24:34;;;;;;;67.88;39.33;;;;;;;-0.78;100.00;99328.19;5033799;28;20037;-84
2021/12/07 04:27:00;;;;;;;71.90;39.67;;;;;;;-0.74;100.00;99332.44;5051226;28;20036;-84
2021/12/07 04:29:25;;;;;;;64.88;37.03;;;;;;;-0.73;100.00;99328.16;5051564;28;20029;-84
2021/12/07 04:31:50;;;;;;;69.38;38.10;;;;;;;-0.76;100.00;99327.34;5033720;28;20032;-84
2021/12/07 04:34:16;;;;;;;67.30;38.53;;;;;;;-0.86;100.00;99319.72;5033844;28;20029;-84
2021/12/07 04:36:42;;;;;;;65.80;36.83;;;;;;;-0.90;100.00;99323.16;5033872;28;20534;-84
2021/12/07 04:39:08;;;;;;;65.43;38.38;;;;;;;-0.89;100.00;99324.84;5051436;28;20457;-84
2021/12/07 04:41:34;;;;;;;66.40;35.33;;;;;;;-0.95;100.00;99317.22;5033629;28;20036;-84
2021/12/07 04:44:03;;;;;;;65.32;35.20;;;;;;;-1.01;100.00;99324.06;5051225;28;20033;-84
2021/12/07 04:46:36;;;;;;;62.03;32.83;;;;;;;-1.05;100.00;99327.50;5033819;28;20025;-84
2021/12/07 05:00:04;;;;;;;67.60;37.25;;;;;;;-1.12;100.00;99327.53;4989942;28;20042;-84
2021/12/07 05:02:30;;;;;;;86.03;49.17;;;;;;;-1.08;100.00;99335.16;4973352;28;20026;-84
2021/12/07 05:04:55;;;;;;;64.70;37.47;;;;;;;-1.09;100.00;99328.38;4973143;28;20065;-84
2021/12/07 05:07:33;;;;;;;77.88;44.78;;;;;;;-1.12;100.00;99330.09;4989637;28;20128;-85
2021/12/07 05:12:34;;;;;;;65.57;38.88;;;;;;;-1.12;100.00;99333.47;4989650;28;20045;-84
2021/12/07 05:15:03;;;;;;;64.00;34.45;;;;;;;-1.21;100.00;99327.56;4972728;28;20058;-84
2021/12/07 05:39:05;;;;;;;71.00;37.88;;;;;;;-1.21;100.00;99325.88;5012097;28;20076;-84
2021/12/07 05:41:30;;;;;;;73.97;37.92;;;;;;;-1.11;100.00;99342.00;5012736;28;20044;-84
2021/12/07 05:43:56;;;;;;;77.03;41.30;;;;;;;-1.18;100.00;99333.53;4995770;28;20026;-84
2021/12/07 05:46:22;;;;;;;95.85;48.60;;;;;;;-1.08;100.00;99344.53;5012243;28;20088;-84
2021/12/07 05:48:47;;;;;;;113.25;50.40;;;;;;;-1.09;100.00;99348.81;5012324;28;20344;-84
2021/12/07 05:51:13;;;;;;;78.60;42.42;;;;;;;-1.22;100.00;99329.28;5012473;28;20042;-90
2021/12/07 05:53:38;;;;;;;94.38;47.25;;;;;;;-1.13;100.00;99347.13;5016907;28;20033;-90
2021/12/07 05:56:04;;;;;;;97.25;45.45;;;;;;;-1.11;100.00;99342.00;5037128;28;20032;-90
2021/12/07 05:58:29;;;;;;;94.10;47.38;;;;;;;-1.18;100.00;99332.66;5036932;28;20167;-90
2021/12/07 06:00:57;;;;;;;95.70;45.63;;;;;;;-1.10;100.00;99351.34;5036731;28;20033;-90
2021/12/07 06:03:25;;;;;;;99.78;45.80;;;;;;;-1.11;100.00;99353.06;5037941;28;20082;-90
2021/12/07 06:05:52;;;;;;;92.75;45.00;;;;;;;-1.15;100.00;99350.53;5037230;28;20106;-89
2021/12/07 06:08:17;;;;;;;124.03;56.42;;;;;;;-1.15;100.00;99361.59;5036965;28;20523;-90
2021/12/07 06:10:43;;;;;;;85.93;44.13;;;;;;;-1.12;100.00;99364.16;5036989;28;20239;-90
2021/12/07 06:13:09;;;;;;;132.40;56.35;;;;;;;-1.10;100.00;99372.66;5036496;28;20107;-89
2021/12/07 06:15:39;;;;;;;89.18;43.80;;;;;;;-1.13;100.00;99364.16;5036367;28;20579;-90
2021/12/07 06:18:05;;;;;;;169.60;118.25;;;;;;;-1.18;100.00;99351.41;5011893;28;20049;-90
2021/12/07 06:20:33;;;;;;;117.60;52.78;;;;;;;-1.05;100.00;99375.22;5009429;28;20046;-88
2021/12/07 06:22:58;;;;;;;88.20;43.28;;;;;;;-1.12;100.00;99358.19;4914884;29;20079;-89
2021/12/07 06:25:24;;;;;;;99.57;51.00;;;;;;;-1.10;100.00;99364.13;4915668;29;20108;-89
2021/12/07 06:27:50;;;;;;;119.93;53.58;;;;;;;-1.11;100.00;99352.22;4915774;29;20036;-90
2021/12/07 06:30:18;;;;;;;100.15;46.53;;;;;;;-0.99;100.00;99369.22;4915476;29;20060;-90
2021/12/07 06:32:44;;;;;;;96.75;46.17;;;;;;;-1.00;100.00;99363.25;4900130;29;20184;-90
2021/12/07 06:35:10;;;;;;;121.00;55.38;;;;;;;-0.95;100.00;99366.63;4915550;29;20714;-90
2021/12/07 06:37:36;;;;;;;89.57;43.88;;;;;;;-0.91;100.00;99377.69;4916134;29;20480;-89
2021/12/07 06:40:10;;;;;;;92.22;42.25;;;;;;;-0.89;100.00;99370.84;4915341;29;20055;-82
2021/12/07 06:42:38;;;;;;;81.88;39.00;;;;;;;-0.92;100.00;99360.66;4914667;29;20068;-82
2021/12/07 06:45:10;;;;;;;89.63;42.28;;;;;;;-0.82;100.00;99380.22;4910978;29;20043;-83
2021/12/07 06:47:47;;;;;;;88.28;44.10;;;;;;;-0.80;100.00;99387.03;4898861;29;20079;-81
2021/12/07 06:50:16;;;;;;;91.70;42.92;;;;;;;-0.86;100.00;99379.38;4950071;29;20142;-82
2021/12/07 06:52:43;;;;;;;92.97;44.60;;;;;;;-0.84;100.00;99395.56;4921497;29;20443;-83
2021/12/07 06:55:11;;;;;;;85.93;40.63;;;;;;;-0.96;100.00;99370.06;5017852;28;20048;-82
2021/12/07 06:57:47;;;;;;;95.82;44.70;;;;;;;-0.86;100.00;99388.75;5030697;28;20025;-82
2021/12/07 07:00:14;;;;;;;101.88;45.72;;;;;;;-0.90;100.00;99376.84;5030549;28;20034;-82
2021/12/07 07:02:43;;;;;;;111.88;49.95;;;;;;;-0.84;100.00;99387.91;5030618;28;20030;-82
2021/12/07 07:05:10;;;;;;;112.72;51.33;;;;;;;-0.84;100.00;99389.59;5030329;28;20041;-82
2021/12/07 07:07:41;;;;;;;84.60;39.13;;;;;;;-0.86;100.00;99381.91;5030480;28;20500;-82
2021/12/07 07:10:10;;;;;;;104.53;46.30;;;;;;;-0.82;100.00;99391.28;5013664;28;20034;-82
2021/12/07 07:12:36;;;;;;;111.78;50.42;;;;;;;-0.81;100.00;99400.66;5022588;28;20166;-82
2021/12/07 07:15:14;;;;;;;113.20;51.22;;;;;;;-0.76;100.00;99390.38;5072180;28;20538;-83
2021/12/07 07:17:40;;;;;;;140.30;59.25;;;;;;;-0.90;100.00;99371.72;5072685;28;20090;-82
2021/12/07 07:20:12;;;;;;;133.43;56.42;;;;;;;-0.80;100.00;99387.03;5054486;28;20032;-82
2021/12/07 07:22:39;;;;;;;106.30;47.33;;;;;;;-0.85;100.00;99386.16;5010376;28;20041;-82
2021/12/07 07:25:26;;;;;;;102.00;44.53;;;;;;;-0.84;100.00;99393.00;4993874;28;20045;-82
2021/12/07 07:27:53;;;;;;;106.07;46.10;;;;;;;-0.86;100.00;99388.75;4990764;28;20101;-82
2021/12/07 07:30:19;;;;;;;99.72;43.63;;;;;;;-0.88;100.00;99378.53;4990700;28;20039;-82
2021/12/07 07:32:46;;;;;;;96.25;44.50;;;;;;;-0.97;100.00;99364.94;4974326;28;20046;-82
2021/12/07 07:35:12;;;;;;;96.43;45.53;;;;;;;-0.74;100.00;99393.81;4981774;28;20030;-82
2021/12/07 07:37:39;;;;;;;115.13;53.05;;;;;;;-0.87;100.00;99369.16;4971097;28;20046;-82
2021/12/07 07:40:12;;;;;;;132.85;62.58;;;;;;;-0.81;100.00;99390.41;4967111;28;20417;-82
2021/12/07 07:42:39;;;;;;;114.10;52.25;;;;;;;-0.89;100.00;99381.09;4971226;28;20477;-82
2021/12/07 07:45:06;;;;;;;98.28;46.20;;;;;;;-0.97;100.00;99378.56;4951353;29;20050;-82
2021/12/07 07:47:38;;;;;;;109.13;51.75;;;;;;;-0.98;100.00;99389.66;4951818;29;20043;-83
2021/12/07 07:50:14;;;;;;;97.57;47.30;;;;;;;-0.96;100.00;99395.63;4935429;29;20118;-82
2021/12/07 07:52:40;;;;;;;100.82;48.28;;;;;;;-1.02;100.00;99395.63;4951627;29;20067;-83
2021/12/07 07:55:06;;;;;;;115.97;53.75;;;;;;;-0.98;100.00;99402.44;4951573;29;20035;-83
2021/12/07 07:57:32;;;;;;;90.28;41.78;;;;;;;-0.88;100.00;99414.34;4951771;29;20035;-82
2021/12/07 07:59:58;;;;;;;85.32;41.90;;;;;;;-0.87;100.00;99403.25;4969588;28;20156;-82
2021/12/07 08:02:29;;;;;;;89.40;42.40;;;;;;;-0.98;100.00;99365.78;4971005;28;20126;-83
2021/12/07 08:04:54;;;;;;;94.07;45.42;;;;;;;-0.82;100.00;99398.09;4970641;28;20101;-82
2021/12/07 08:07:20;;;;;;;103.20;48.20;;;;;;;-0.80;100.00;99399.81;4954675;28;20039;-83
2021/12/07 08:09:46;;;;;;;103.35;49.38;;;;;;;-0.79;100.00;99395.53;4954607;28;20175;-83
2021/12/07 08:12:15;;;;;;;89.60;45.05;;;;;;;-0.86;100.00;99376.81;4954301;28;20081;-82
2021/12/07 08:14:40;;;;;;;107.28;50.20;;;;;;;-0.75;100.00;99404.91;4932133;29;20122;-83
2021/12/07 08:17:10;;;;;;;123.93;56.72;;;;;;;-0.88;100.00;99382.81;4930848;29;20131;-83
2021/12/07 08:19:37;;;;;;;109.00;52.95;;;;;;;-0.80;100.00;99396.38;4894384;29;20586;-83
2021/12/07 08:22:05;;;;;;;104.55;51.72;;;;;;;-0.78;100.00;99400.63;4893736;29;20064;-84
2021/12/07 08:24:33;;;;;;;110.28;52.67;;;;;;;-0.73;100.00;99408.28;4904047;29;20092;-84
2021/12/07 08:26:59;;;;;;;119.30;56.60;;;;;;;-0.80;100.00;99406.59;4950711;28;20039;-84
2021/12/07 08:29:44;;;;;;;147.73;66.15;;;;;;;-0.73;100.00;99417.66;4935254;29;20042;-84
2021/12/07 08:32:09;;;;;;;113.95;58.10;;;;;;;-0.74;100.00;99423.66;4912692;29;20048;-84
2021/12/07 08:34:35;;;;;;;125.50;59.42;;;;;;;-0.75;100.00;99417.69;4919031;29;20042;-84
2021/12/07 08:37:02;;;;;;;121.95;60.35;;;;;;;-0.94;100.00;99380.25;4912636;29;20099;-84
2021/12/07 08:39:28;;;;;;;110.22;55.30;;;;;;;-0.68;100.00;99421.03;4871010;29;20524;-84
2021/12/07 08:41:54;;;;;;;119.38;64.47;;;;;;;-0.56;100.00;99431.22;4913016;29;20044;-84
2021/12/07 08:44:20;;;;;;;107.40;51.90;;;;;;;-0.57;100.00;99419.28;4874968;29;20098;-84
2021/12/07 08:46:54;;;;;;;139.20;78.80;;;;;;;-0.46;100.00;99424.34;4875310;29;20045;-84
2021/12/07 08:49:22;;;;;;;105.78;50.42;;;;;;;-0.28;100.00;99444.72;4871734;29;20042;-84
2021/12/07 08:51:49;;;;;;;106.70;54.50;;;;;;;-0.20;100.00;99442.13;4856666;29;20050;-83
2021/12/07 08:59:45;;;;;;;125.78;62.97;;;;;;;-0.19;100.00;99443.81;4875677;29;20544;-84
2021/12/07 09:02:23;;;;;;;116.63;57.20;;;;;;;-0.26;100.00;99443.81;4875103;29;20052;-84
2021/12/07 09:04:50;;;;;;;116.80;53.90;;;;;;;-0.27;100.00;99439.56;4890695;29;20123;-84
2021/12/07 09:07:18;;;;;;;103.28;48.78;;;;;;;-0.27;100.00;99452.38;4912264;29;20042;-84
2021/12/07 09:09:46;;;;;;;98.28;47.60;;;;;;;-0.36;100.00;99454.13;4960888;28;20036;-83
2021/12/07 09:12:17;;;;;;;118.35;55.03;;;;;;;-0.58;100.00;99431.22;5009383;28;20386;-84
2021/12/07 09:14:45;;;;;;;115.45;53.75;;;;;;;-0.54;100.00;99439.75;5022812;28;20038;-83
2021/12/07 09:17:14;;;;;;;104.13;48.13;;;;;;;-0.52;100.00;99446.53;5016963;28;20409;-83
2021/12/07 09:19:40;;;;;;;99.57;47.72;;;;;;;-0.51;100.00;99443.16;5033996;28;20053;-83
2021/12/07 09:22:06;;;;;;;92.45;43.63;;;;;;;-0.47;100.00;99449.06;5033638;28;20118;-83
2021/12/07 09:24:32;;;;;;;109.53;50.92;;;;;;;-0.33;100.00;99459.25;5035325;28;20037;-83
2021/12/07 09:27:01;;;;;;;107.03;48.25;;;;;;;-0.36;100.00;99436.22;5033323;28;20059;-83
2021/12/07 09:29:28;;;;;;;97.43;47.67;;;;;;;-0.33;100.00;99431.94;5034666;28;20025;-84
2021/12/07 09:31:54;;;;;;;101.63;45.85;;;;;;;-0.20;100.00;99439.56;5034967;28;20155;-82
2021/12/07 09:34:22;;;;;;;94.97;45.95;;;;;;;-0.33;100.00;99408.91;5033067;28;20028;-84
2021/12/07 09:36:47;;;;;;;95.15;44.55;;;;;;;-0.24;100.00;99441.28;5034740;28;20108;-84
2021/12/07 09:39:16;;;;;;;107.50;48.67;;;;;;;-0.26;100.00;99448.09;5034545;28;20026;-83
2021/12/07 09:41:42;;;;;;;93.10;44.60;;;;;;;-0.47;100.00;99422.63;5033262;28;20041;-84
2021/12/07 09:44:08;;;;;;;89.78;43.67;;;;;;;-0.48;100.00;99434.59;5033979;28;20030;-83
2021/12/07 09:46:36;;;;;;;85.38;42.30;;;;;;;-0.55;100.00;99436.34;5034741;28;20100;-83
2021/12/07 09:49:04;;;;;;;91.90;41.50;;;;;;;-0.71;100.00;99421.94;5033377;28;20384;-83
2021/12/07 09:51:29;;;;;;;93.70;46.78;;;;;;;-0.73;100.00;99427.91;5033263;28;20025;-83
2021/12/07 09:53:57;;;;;;;88.65;42.47;;;;;;;-0.71;100.00;99421.94;5033143;28;20091;-83
2021/12/07 09:56:24;;;;;;;90.78;42.05;;;;;;;-0.70;100.00;99415.09;5032624;28;20104;-83
2021/12/07 09:58:55;;;;;;;110.68;50.85;;;;;;;-0.61;100.00;99409.94;5033016;28;20030;-83
2021/12/07 10:01:43;;;;;;;;;;;;;;;-0.41;100.00;99426.03;5033334;28;20041;-84
2021/12/07 10:04:09;;;;;;;89.40;40.92;;;;;;;-0.48;100.00;99400.47;4992084;28;19910;-83
2021/12/07 10:06:35;;;;;;;86.28;41.42;;;;;;;-0.57;100.00;99393.72;4992425;28;20035;-83
2021/12/07 10:09:09;;;;;;;94.72;42.60;;;;;;;-0.56;100.00;99420.97;4992127;28;20513;-83
2021/12/07 10:11:36;;;;;;;87.75;42.38;;;;;;;-0.54;100.00;99421.84;4992259;28;20133;-83
2021/12/07 10:14:04;;;;;;;102.28;47.60;;;;;;;-0.63;100.00;99417.63;4991614;28;20046;-83
2021/12/07 10:16:29;;;;;;;93.88;43.63;;;;;;;-0.59;100.00;99413.31;4975791;28;20056;-83
2021/12/07 10:18:55;;;;;;;95.50;47.42;;;;;;;-0.67;100.00;99410.81;4992241;28;20487;-83
2021/12/07 10:21:27;;;;;;;91.10;40.80;;;;;;;-0.67;100.00;99417.66;4992176;28;20034;-83
2021/12/07 10:24:02;;;;;;;83.97;38.92;;;;;;;-0.66;100.00;99416.78;4975370;28;20045;-83
2021/12/07 10:26:40;;;;;;;101.18;47.42;;;;;;;-0.69;100.00;99414.25;4991725;28;20042;-83
2021/12/07 10:29:13;;;;;;;191.35;111.85;;;;;;;-0.60;100.00;99427.81;4991882;28;20450;-83
2021/12/07 10:31:51;;;;;;;106.32;50.80;;;;;;;-0.80;100.00;99406.59;4989365;28;20026;-83
2021/12/07 10:34:28;;;;;;;482.13;280.30;;;;;;;-0.72;100.00;99425.31;5014215;28;20396;-83
2021/12/07 10:37:15;;;;;;;738.13;389.85;;;;;;;-0.79;100.00;99405.78;5032569;28;20068;-83
2021/12/07 10:39:46;;;;;;;157.45;81.20;;;;;;;-0.76;100.00;99400.63;5029299;28;20025;-83
2021/12/07 10:42:30;;;;;;;140.57;69.50;;;;;;;-0.81;100.00;99400.66;5020498;28;20037;-84
2021/12/07 10:45:00;;;;;;;86.65;42.58;;;;;;;-0.69;100.00;99414.25;4971999;28;20047;-83
2021/12/07 10:47:28;;;;;;;160.68;88.45;;;;;;;-0.71;100.00;99398.91;4971998;28;20088;-83
2021/12/07 10:49:56;;;;;;;99.28;43.42;;;;;;;-0.61;100.00;99409.94;4933425;29;20484;-83
2021/12/07 10:52:41;;;;;;;107.40;49.03;;;;;;;-0.67;100.00;99410.81;4930884;29;20663;-83
2021/12/07 10:55:25;;;;;;;106.78;55.03;;;;;;;-0.93;100.00;99372.56;4933446;29;20462;-83
2021/12/07 10:57:59;;;;;;;123.70;71.93;;;;;;;-0.66;100.00;99417.63;4917924;29;20519;-83
2021/12/07 11:00:44;;;;;;;87.85;41.95;;;;;;;-0.73;100.00;99410.84;4933287;29;20060;-83
2021/12/07 11:03:32;;;;;;;93.30;50.90;;;;;;;-0.74;100.00;99411.72;4933142;29;20070;-83
2021/12/07 11:06:01;;;;;;;92.00;48.90;;;;;;;-0.63;100.00;99412.50;4895225;29;20071;-83
2021/12/07 11:08:33;;;;;;;74.07;39.38;;;;;;;-0.86;100.00;99358.06;4895635;29;20184;-83
2021/12/07 11:10:58;;;;;;;100.63;52.17;;;;;;;-0.58;100.00;99409.94;4880502;29;20040;-83
2021/12/07 11:13:35;;;;;;;77.50;43.55;;;;;;;-0.67;100.00;99389.53;4916793;29;20102;-83
2021/12/07 11:16:10;;;;;;;69.20;38.60;;;;;;;-0.54;100.00;99414.16;4883096;29;20199;-83
2021/12/07 11:18:54;;;;;;;99.70;57.83;;;;;;;-0.54;100.00;99393.69;4914066;29;20520;-83
2021/12/07 11:21:20;;;;;;;82.97;42.65;;;;;;;-0.47;100.00;99409.84;4913835;29;20408;-83
2021/12/07 11:23:57;;;;;;;77.07;39.00;;;;;;;-0.66;100.00;99397.16;4913991;29;20048;-83
2021/12/07 11:31:56;;;;;;;83.93;45.13;;;;;;;-0.60;100.00;99397.13;4876920;29;20620;-83
2021/12/07 11:34:27;;;;;;;74.35;41.97;;;;;;;-0.58;100.00;99410.78;4857198;29;20104;-83
2021/12/07 11:37:22;;;;;;;84.80;45.03;;;;;;;-0.56;100.00;99423.53;4857328;29;20087;-83
2021/12/07 11:39:54;;;;;;;72.03;40.15;;;;;;;-0.63;100.00;99420.19;4844757;29;20041;-83
2021/12/07 11:42:38;;;;;;;72.93;41.38;;;;;;;-0.76;100.00;99419.41;4872462;29;20049;-83
2021/12/07 11:45:22;;;;;;;73.80;43.53;;;;;;;-0.79;100.00;99421.97;4871280;29;20057;-83
2021/12/07 11:47:56;;;;;;;70.53;39.45;;;;;;;-0.86;100.00;99404.09;4858374;29;20037;-83
2021/12/07 11:50:33;;;;;;;68.20;39.47;;;;;;;-0.76;100.00;99428.75;4857127;29;20208;-83
2021/12/07 11:53:10;;;;;;;64.57;36.83;;;;;;;-0.87;100.00;99410.91;4843691;29;20042;-83
2021/12/07 11:55:40;;;;;;;72.50;43.22;;;;;;;-0.78;100.00;99415.13;4838997;29;20085;-83
2021/12/07 11:58:07;;;;;;;;;;;;;;;-0.70;100.00;99435.56;4839285;29;20045;-83
2021/12/07 12:00:39;;;;;;;70.90;40.72;;;;;;;-0.86;100.00;99416.88;4838987;29;19912;-83
2021/12/07 12:03:08;;;;;;;70.45;40.92;;;;;;;-0.86;100.00;99430.50;4853132;29;20045;-83
2021/12/07 12:05:37;;;;;;;87.97;50.20;;;;;;;-0.95;100.00;99424.59;4870861;29;20394;-83
2021/12/07 12:08:13;;;;;;;84.50;50.15;;;;;;;-1.09;100.00;99417.81;4878647;29;20049;-83
2021/12/07 12:11:21;;;;;;;76.93;47.13;;;;;;;-0.95;100.00;99438.22;4850319;29;20040;-83
2021/12/07 12:14:34;;;;;;;77.25;47.10;;;;;;;-0.90;100.00;99433.94;4875537;29;20132;-84
2021/12/07 12:17:38;;;;;;;78.43;42.47;;;;;;;-0.92;100.00;99435.66;4902958;29;20149;-83
2021/12/07 12:20:18;;;;;;;84.10;47.45;;;;;;;-0.95;100.00;99432.25;4897338;29;20056;-83
2021/12/07 12:23:33;;;;;;;64.73;39.23;;;;;;;-1.15;100.00;99393.97;4897398;29;20530;-83
2021/12/07 12:26:25;;;;;;;65.40;38.42;;;;;;;-0.85;100.00;99428.78;4838624;29;20086;-83
2021/12/07 12:28:56;;;;;;;71.15;39.22;;;;;;;-0.84;100.00;99425.41;4804943;29;20039;-83
2021/12/07 12:31:44;;;;;;;101.25;53.78;;;;;;;-0.85;100.00;99421.97;4769569;30;20058;-83
2021/12/07 12:34:17;;;;;;;70.30;38.53;;;;;;;-0.86;100.00;99430.50;4783758;30;20070;-83
2021/12/07 12:36:54;;;;;;;66.68;38.22;;;;;;;-0.86;100.00;99421.97;4784089;30;20589;-83
2021/12/07 12:39:22;;;;;;;70.22;39.45;;;;;;;-1.05;100.00;99382.88;4806137;29;20053;-83
2021/12/07 12:42:00;;;;;;;64.07;37.10;;;;;;;-0.93;100.00;99410.06;4805187;29;20055;-83
2021/12/07 12:44:33;;;;;;;49.42;29.60;;;;;;;-0.97;100.00;99421.16;4820112;29;20529;-83
2021/12/07 12:47:03;;;;;;;53.67;32.25;;;;;;;-1.12;100.00;99401.63;4822038;29;20125;-83
2021/12/07 12:49:43;;;;;;;133.63;79.13;;;;;;;-0.98;100.00;99422.88;4823595;29;20095;-83
2021/12/07 12:52:10;;;;;;;108.72;64.85;;;;;;;-1.03;100.00;99428.00;4823635;29;20042;-83
2021/12/07 12:54:55;;;;;;;145.95;89.97;;;;;;;-1.11;100.00;99424.63;4888011;29;20497;-83
2021/12/07 12:58:01;;;;;;;69.40;41.20;;;;;;;-1.12;100.00;99422.09;4879060;29;20037;-82
2021/12/07 13:01:11;;;;;;;81.80;52.03;;;;;;;-1.13;100.00;99428.06;4930727;28;20042;-83
2021/12/07 13:03:45;;;;;;;71.07;41.92;;;;;;;-1.16;100.00;99430.63;4903730;29;20036;-83
2021/12/07 13:06:40;;;;;;;62.83;37.40;;;;;;;-1.13;100.00;99444.25;4935149;29;20036;-83
2021/12/07 13:09:20;;;;;;;65.88;39.65;;;;;;;-1.11;100.00;99445.06;4935365;29;20040;-83
2021/12/07 13:12:06;;;;;;;58.28;34.45;;;;;;;-1.13;100.00;99446.78;4935430;29;20224;-83